Main page
METAR-TAF:

METAR-TAF

Airports :

Sheridan County Airport

Sheridan, Wyoming, United States

latitude: 44-46-10N, longitude: 106-58-08W, elevation: 4018 ft

Current weather observation

The report was made 37 minutes ago, at 03:53 UTC
Wind 5 mph from the South/Southeast
Temperature 48°F
Humidity 66%
Pressure 30.06 in. Hg
Visibility: 10 miles
Overcast at a height of 5000 ft

METAR: KSHR 030353Z AUTO 15004KT 10SM OVC050 09/03 A3006 RMK AO2 SLP163 T00890028

Time: 21:30 (04:30 UTC)

Forecast

The report was made 5 hours and 10 minutes ago, at 23:20 UTC
Forecast valid from 03 at 00 UTC to 03 at 24 UTC
Wind 7 mph from the North
Visibility: 6 miles
Few clouds at a height of 25000 ft
From 03 at 0400 UTC
Wind 10 mph from the North/Northwest
Visibility: 6 miles
Overcast at a height of 10000 ft
From 03 at 0900 UTC
Wind 7 mph from variable directions
Visibility: 6 miles
Overcast at a height of 10000 ft

TAF: KSHR 022320Z 0300/0324 36006KT P6SM FEW250 FM030400 33009KT P6SM OVC100 FM030900 VRB06KT P6SM OVC100

Weather observations and forecasts of more than 4000 airports (METAR and TAF reports).

The available stations are represented by yellow and red dots on the map.

Hover mouse over dot to see the name of the station.

Then click to see weather observations and forecasts.

To change the map : click on the green buttons with a black cross to zoom in, on the green button with a dash to zoom out, or on the green arrows for adjacent maps.


METAR-TAF: